Time;durP1;ratioP1;P1;durP2;ratioP2;P2;SDS_P1;SDS_P2;PMS_P1;PMS_P2;Temp;Humidity;BMP_temperature;BMP_pressure;BME280_temperature;BME280_humidity;BME280_pressure;Samples;Min_cycle;Max_cycle;Signal;HPM_P1;HPM_P2
2021/04/19 00:00:23;;;;;;;;;;;;;;;7.29;71.29;94421.67;1745227;82;20258;-56
2021/04/19 00:02:50;;;;;;;;;;;;;;;7.30;71.22;94416.39;1745219;82;20218;-55
2021/04/19 00:05:19;;;;;;;;;;;;;;;7.31;71.14;94417.31;1719655;82;20238;-54
2021/04/19 00:07:47;;;;;;;;;;;;;;;7.30;70.98;94413.04;1745297;82;20282;-55
2021/04/19 00:10:16;;;;;;;;;;;;;;;7.28;71.08;94415.45;1745240;82;21227;-56
2021/04/19 00:12:44;;;;;;;;;;;;;;;7.24;71.08;94408.53;1745196;82;20230;-54
2021/04/19 00:15:12;;;;;;;;;;;;;;;7.14;71.28;94406.26;1745273;82;20235;-56
2021/04/19 00:17:41;;;;;;;;;;;;;;;7.08;71.57;94406.63;1745262;82;20225;-54
2021/04/19 00:20:12;;;;;;;;;;;;;;;7.08;71.71;94402.53;1745257;82;20243;-54
2021/04/19 00:22:40;;;;;;;;;;;;;;;7.06;71.85;94403.40;1745231;82;21196;-54
2021/04/19 00:25:09;;;;;;;;;;;;;;;7.02;72.01;94402.70;1745239;82;20230;-53
2021/04/19 00:27:37;;;;;;;;;;;;;;;6.98;72.25;94404.19;1745273;82;20235;-55
2021/04/19 00:30:06;;;;;;;;;;;;;;;6.94;72.47;94393.95;1728607;82;20222;-54
2021/04/19 00:32:33;;;;;;;;;;;;;;;6.95;72.48;94391.97;1725929;83;20286;-54
2021/04/19 00:35:02;;;;;;;;;;;;;;;6.96;72.41;94394.29;1725888;83;21211;-54
2021/04/19 00:37:30;;;;;;;;;;;;;;;7.03;72.16;94390.59;1725830;83;20219;-55
2021/04/19 00:39:57;;;;;;;;;;;;;;;7.05;71.85;94392.30;1725850;81;20302;-54
2021/04/19 00:42:25;;;;;;;;;;;;;;;7.01;71.76;94388.28;1725823;83;20254;-54
2021/04/19 00:44:52;;;;;;;;;;;;;;;7.02;71.90;94396.65;1725913;83;20499;-54
2021/04/19 00:47:21;;;;;;;;;;;;;;;7.09;71.76;94396.45;1725887;83;21377;-54
2021/04/19 00:49:49;;;;;;;;;;;;;;;7.13;71.58;94393.03;1725803;83;20214;-54
2021/04/19 00:52:16;;;;;;;;;;;;;;;7.06;71.56;94386.98;1725874;83;20223;-54
2021/04/19 00:54:44;;;;;;;;;;;;;;;6.95;71.85;94384.55;1725258;83;20247;-54
2021/04/19 00:57:14;;;;;;;;;;;;;;;6.85;72.28;94395.16;1722409;83;20482;-55
2021/04/19 00:59:41;;;;;;;;;;;;;;;6.89;72.58;94399.17;1725873;83;21218;-54
2021/04/19 01:02:09;;;;;;;;;;;;;;;7.00;72.54;94396.91;1725805;83;20490;-55
2021/04/19 01:04:38;;;;;;;;;;;;;;;7.11;72.23;94393.45;1725832;83;20287;-54
2021/04/19 01:07:07;;;;;;;;;;;;;;;7.14;71.80;94385.74;1725848;83;20303;-53
2021/04/19 01:09:34;;;;;;;;;;;;;;;7.12;71.71;94399.09;1725892;83;20224;-54
2021/04/19 01:12:04;;;;;;;;;;;;;;;7.10;71.65;94398.76;1725816;83;21144;-54
2021/04/19 01:14:31;;;;;;;;;;;;;;;7.12;71.50;94393.62;1725795;83;20235;-55
2021/04/19 01:16:59;;;;;;;;;;;;;;;7.13;71.30;94391.05;1725831;83;20243;-53
2021/04/19 01:19:29;;;;;;;;;;;;;;;7.12;71.28;94387.40;1725921;83;20270;-53
2021/04/19 01:21:58;;;;;;;;;;;;;;;7.11;71.31;94381.14;1725844;83;20223;-55
2021/04/19 01:24:26;;;;;;;;;;;;;;;7.11;71.33;94387.98;1725803;83;21410;-54
2021/04/19 01:26:54;;;;;;;;;;;;;;;7.12;71.06;94388.16;1725788;83;20227;-53
2021/04/19 01:29:23;;;;;;;;;;;;;;;7.13;71.02;94375.25;1733958;82;20214;-54
2021/04/19 01:31:51;;;;;;;;;;;;;;;7.17;71.00;94381.39;1745198;82;20223;-54
2021/04/19 01:34:19;;;;;;;;;;;;;;;7.19;70.96;94379.73;1745219;82;20242;-53
2021/04/19 01:36:47;;;;;;;;;;;;;;;7.21;70.75;94372.47;1745131;82;21373;-53
2021/04/19 01:39:17;;;;;;;;;;;;;;;7.12;70.81;94370.98;1745067;81;20226;-53
2021/04/19 01:41:45;;;;;;;;;;;;;;;7.01;71.25;94377.92;1745194;82;20230;-54
2021/04/19 01:44:14;;;;;;;;;;;;;;;6.99;71.75;94377.02;1745142;82;20242;-55
2021/04/19 01:46:42;;;;;;;;;;;;;;;7.05;71.78;94375.89;1745198;82;20234;-54
2021/04/19 01:49:16;;;;;;;;;;;;;;;7.05;71.40;94365.70;1745104;82;22143;-56
2021/04/19 01:51:47;;;;;;;;;;;;;;;6.98;71.44;94370.59;1719723;82;20214;-54
2021/04/19 01:54:15;;;;;;;;;;;;;;;6.95;71.64;94371.47;1745210;82;20259;-54
2021/04/19 01:56:43;;;;;;;;;;;;;;;6.96;71.77;94375.14;1745176;82;20242;-54
2021/04/19 01:59:11;;;;;;;;;;;;;;;6.99;71.53;94366.66;1745204;82;20217;-54
2021/04/19 02:02:00;;;;;;;;;;;;;;;7.03;71.42;94364.00;1745163;82;21713;-53
2021/04/19 02:04:48;;;;;;;;;;;;;;;7.07;71.23;94363.30;1742873;82;20222;-54
2021/04/19 02:07:36;;;;;;;;;;;;;;;7.06;71.17;94366.48;1745192;82;20238;-54
2021/04/19 02:10:31;;;;;;;;;;;;;;;6.98;71.28;94363.17;1745147;82;20218;-54
2021/04/19 02:13:14;;;;;;;;;;;;;;;6.81;71.64;94370.48;1745169;82;20240;-55
2021/04/19 02:15:46;;;;;;;;;;;;;;;6.72;72.36;94366.25;1719777;82;22219;-54
2021/04/19 02:18:20;;;;;;;;;;;;;;;6.70;72.31;94375.48;1745119;82;20239;-54
2021/04/19 02:20:55;;;;;;;;;;;;;;;6.66;72.33;94369.34;1745161;82;20222;-55
2021/04/19 02:23:35;;;;;;;;;;;;;;;6.63;72.48;94371.55;1745137;82;20246;-53
2021/04/19 02:26:06;;;;;;;;;;;;;;;6.63;72.50;94364.13;1719802;82;20222;-55
2021/04/19 02:28:39;;;;;;;;;;;;;;;6.64;72.61;94368.98;1745136;82;21223;-55
2021/04/19 02:31:10;;;;;;;;;;;;;;;6.65;72.58;94362.32;1744246;82;20230;-54
2021/04/19 02:33:39;;;;;;;;;;;;;;;6.67;72.75;94359.95;1745150;82;20226;-55
2021/04/19 02:36:09;;;;;;;;;;;;;;;6.70;72.81;94363.19;1745111;82;20298;-55
2021/04/19 02:38:41;;;;;;;;;;;;;;;6.76;72.77;94360.08;1745148;81;20226;-55
2021/04/19 02:41:12;;;;;;;;;;;;;;;6.77;72.63;94354.78;1745158;82;21206;-54
2021/04/19 02:43:41;;;;;;;;;;;;;;;6.78;72.57;94350.84;1745025;82;20520;-54
2021/04/19 02:46:09;;;;;;;;;;;;;;;6.80;72.42;94351.17;1745121;82;20242;-54
2021/04/19 02:48:38;;;;;;;;;;;;;;;6.76;72.41;94347.78;1745122;82;20277;-54
2021/04/19 02:51:08;;;;;;;;;;;;;;;6.71;72.49;94349.68;1744943;82;20277;-54
2021/04/19 02:53:39;;;;;;;;;;;;;;;6.70;72.68;94346.17;1744730;82;21209;-54
2021/04/19 02:56:08;;;;;;;;;;;;;;;6.69;72.88;94350.72;1745173;82;20250;-54
2021/04/19 02:58:47;;;;;;;;;;;;;;;6.67;72.94;94343.55;1745186;82;20218;-53
2021/04/19 03:01:22;;;;;;;;;;;;;;;6.56;72.94;94348.52;1745126;82;20246;-53
2021/04/19 03:03:53;;;;;;;;;;;;;;;6.44;73.35;94341.02;1744887;82;20490;-54
2021/04/19 03:06:20;;;;;;;;;;;;;;;6.35;73.47;94342.25;1745204;82;22281;-55
2021/04/19 03:08:50;;;;;;;;;;;;;;;6.28;73.72;94345.14;1745054;82;20222;-54
2021/04/19 03:11:28;;;;;;;;;;;;;;;6.27;73.83;94340.88;1745095;82;20255;-55
2021/04/19 03:13:56;;;;;;;;;;;;;;;6.24;73.98;94343.89;1745135;82;20221;-54
2021/04/19 03:16:31;;;;;;;;;;;;;;;6.26;74.11;94344.81;1743930;82;20225;-54
2021/04/19 03:19:03;;;;;;;;;;;;;;;6.34;74.17;94348.30;1744787;82;22215;-55
2021/04/19 03:21:34;;;;;;;;;;;;;;;6.43;74.05;94349.05;1745134;82;20523;-54
2021/04/19 03:24:07;;;;;;;;;;;;;;;6.49;74.01;94348.11;1743736;82;20246;-56
2021/04/19 03:26:37;;;;;;;;;;;;;;;6.57;73.96;94353.56;1743612;82;20258;-56
2021/04/19 03:29:05;;;;;;;;;;;;;;;6.62;73.60;94357.72;1744069;82;20257;-55
2021/04/19 03:31:40;;;;;;;;;;;;;;;6.59;73.61;94351.17;1724245;83;21225;-54
2021/04/19 03:34:12;;;;;;;;;;;;;;;6.61;73.60;94356.97;1725716;83;20222;-54
2021/04/19 03:36:40;;;;;;;;;;;;;;;6.65;73.45;94357.64;1725773;82;20235;-54
2021/04/19 03:39:08;;;;;;;;;;;;;;;6.71;73.52;94360.00;1725685;82;20294;-54
2021/04/19 03:41:39;;;;;;;;;;;;;;;6.78;73.38;94359.83;1725766;83;20231;-55
2021/04/19 03:44:08;;;;;;;;;;;;;;;6.82;73.18;94356.97;1725722;83;21132;-54
2021/04/19 03:46:37;;;;;;;;;;;;;;;6.90;73.15;94359.70;1701018;83;20215;-54
2021/04/19 03:49:10;;;;;;;;;;;;;;;7.01;72.88;94356.05;1725450;83;20265;-54
2021/04/19 03:51:41;;;;;;;;;;;;;;;7.10;72.98;94366.52;1724832;83;20507;-54
2021/04/19 03:54:08;;;;;;;;;;;;;;;7.26;72.85;94369.19;1701057;83;20243;-55
2021/04/19 03:56:37;;;;;;;;;;;;;;;7.38;72.37;94370.58;1725730;83;21393;-54
2021/04/19 03:59:10;;;;;;;;;;;;;;;7.40;72.08;94362.73;1701574;83;20223;-54
2021/04/19 04:01:39;;;;;;;;;;;;;;;7.41;71.80;94364.26;1725631;83;20223;-54
2021/04/19 04:04:10;;;;;;;;;;;;;;;7.37;71.83;94373.15;1725800;83;20982;-54
2021/04/19 04:06:57;;;;;;;;;;;;;;;7.30;71.78;94361.67;1725750;83;20219;-54
2021/04/19 04:09:25;;;;;;;;;;;;;;;7.20;71.87;94366.25;1725751;83;21283;-53
2021/04/19 04:11:53;;;;;;;;;;;;;;;7.15;72.15;94357.19;1725644;83;20222;-54
2021/04/19 04:14:24;;;;;;;;;;;;;;;7.10;72.38;94363.20;1723938;83;20227;-54
2021/04/19 04:16:51;;;;;;;;;;;;;;;7.03;72.59;94365.37;1700954;83;20243;-55
2021/04/19 04:19:21;;;;;;;;;;;;;;;6.98;72.89;94364.55;1701391;83;20498;-55
2021/04/19 04:21:56;;;;;;;;;;;;;;;6.99;73.00;94361.97;1724588;83;21390;-54
2021/04/19 04:24:31;;;;;;;;;;;;;;;7.04;73.06;94364.78;1724853;83;20708;-56
2021/04/19 04:26:59;;;;;;;;;;;;;;;7.08;73.27;94360.72;1725706;83;20231;-54
2021/04/19 04:29:27;;;;;;;;;;;;;;;7.19;73.28;94360.58;1726650;82;20272;-53
2021/04/19 04:31:59;;;;;;;;;;;;;;;7.32;72.94;94358.65;1742494;82;20221;-54
2021/04/19 04:34:28;;;;;;;;;;;;;;;7.38;72.58;94358.27;1745096;82;21380;-54
2021/04/19 04:36:56;;;;;;;;;;;;;;;7.45;72.42;94361.40;1745142;82;20234;-54
2021/04/19 04:39:24;;;;;;;;;;;;;;;7.51;71.90;94363.16;1719721;82;20218;-55
2021/04/19 04:41:52;;;;;;;;;;;;;;;7.54;71.75;94359.55;1745202;82;20227;-54
2021/04/19 04:44:30;;;;;;;;;;;;;;;7.63;71.68;94361.05;1745164;82;20516;-55
2021/04/19 04:47:04;;;;;;;;;;;;;;;7.74;71.47;94364.83;1744967;82;21285;-55
2021/04/19 04:49:35;;;;;;;;;;;;;;;7.79;71.21;94363.69;1745250;82;20226;-56
2021/04/19 04:52:04;;;;;;;;;;;;;;;7.81;71.20;94363.23;1745221;82;20218;-55
2021/04/19 04:54:33;;;;;;;;;;;;;;;7.82;71.03;94362.80;1745136;82;20242;-54
2021/04/19 04:57:01;;;;;;;;;;;;;;;7.88;71.08;94359.67;1745195;82;20242;-55
2021/04/19 04:59:29;;;;;;;;;;;;;;;8.02;70.90;94367.45;1745202;82;21402;-55
2021/04/19 05:01:56;;;;;;;;;;;;;;;8.12;70.56;94358.72;1745079;82;20258;-55
2021/04/19 05:04:27;;;;;;;;;;;;;;;8.15;70.36;94364.69;1745146;82;20219;-54
2021/04/19 05:06:54;;;;;;;;;;;;;;;8.13;70.30;94362.41;1744260;82;20234;-57
2021/04/19 05:09:22;;;;;;;;;;;;;;;8.15;70.16;94357.84;1745160;82;20230;-55
2021/04/19 05:11:50;;;;;;;;;;;;;;;8.22;70.00;94361.77;1745238;82;22120;-57
2021/04/19 05:14:18;;;;;;;;;;;;;;;8.25;69.94;94357.52;1745071;82;20266;-55
2021/04/19 05:16:45;;;;;;;;;;;;;;;8.31;69.90;94358.52;1695680;82;20226;-59
2021/04/19 05:19:14;;;;;;;;;;;;;;;8.37;69.35;94362.22;1745158;82;20226;-54
2021/04/19 05:21:42;;;;;;;;;;;;;;;8.36;69.32;94355.80;1745107;82;20227;-56
2021/04/19 05:24:10;;;;;;;;;;;;;;;8.36;69.35;94357.95;1767087;80;21220;-57
2021/04/19 05:26:38;;;;;;;;;;;;;;;8.45;69.30;94355.28;1799158;79;20295;-55
2021/04/19 05:29:06;;;;;;;;;;;;;;;8.50;69.03;94352.59;1789847;79;20214;-55
2021/04/19 05:31:35;;;;;;;;;;;;;;;8.56;68.47;94355.70;1784653;79;22294;-55
2021/04/19 05:34:03;;;;;;;;;;;;;;;8.53;68.50;94355.81;1783177;79;20297;-56
2021/04/19 05:36:30;;;;;;;;;;;;;;;8.55;68.43;94351.43;1802208;79;21273;-57
2021/04/19 05:38:58;;;;;;;;;;;;;;;8.61;68.29;94351.02;1799542;79;21925;-56
2021/04/19 05:41:27;;;;;;;;;;;;;;;8.68;68.06;94352.16;1767793;79;20313;-54
2021/04/19 05:43:54;;;;;;;;;;;;;;;8.75;67.75;94352.50;1754144;79;20273;-54
2021/04/19 05:46:22;;;;;;;;;;;;;;;8.85;67.42;94357.64;1788293;79;20265;-58
2021/04/19 05:48:50;;;;;;;;;;;;;;;8.89;66.82;94351.42;1781903;79;21378;-55
2021/04/19 05:51:25;;;;;;;;;;;;;;;8.87;66.76;94357.18;1775532;79;20252;-59
2021/04/19 05:53:53;;;;;;;;;;;;;;;8.83;66.65;94351.80;1784912;79;20289;-56
2021/04/19 05:56:37;;;;;;;;;;;;;;;8.79;66.43;94349.80;1783393;78;21460;-56
2021/04/19 05:59:20;;;;;;;;;;;;;;;8.78;66.52;94358.48;1790384;78;20275;-56
2021/04/19 06:01:47;;;;;;;;;;;;;;;8.68;66.84;94354.13;1760851;80;22190;-56
2021/04/19 06:04:22;;;;;;;;;;;;;;;8.63;67.22;94352.70;1772056;79;21039;-56
2021/04/19 06:06:56;;;;;;;;;;;;;;;8.71;67.44;94357.34;1787272;78;20259;-59
2021/04/19 06:09:28;;;;;;;;;;;;;;;8.88;67.35;94356.75;1792044;78;20265;-56
2021/04/19 06:12:01;;;;;;;;;;;;;;;8.92;66.83;94351.27;1791034;78;20306;-57
2021/04/19 06:14:39;;;;;;;;;;;;;;;8.99;67.04;94352.41;1754253;81;21168;-57
2021/04/19 06:17:07;;;;;;;;;;;;;;;9.11;66.63;94357.05;1759195;81;20407;-56
2021/04/19 06:19:40;;;;;;;;;;;;;;;9.21;66.19;94357.29;1758862;81;20216;-55
2021/04/19 06:22:09;;;;;;;;;;;;;;;9.20;66.15;94354.98;1794779;79;20245;-57
2021/04/19 06:24:36;;;;;;;;;;;;;;;9.17;66.21;94347.64;1790254;78;20290;-53
2021/04/19 06:27:04;;;;;;;;;;;;;;;9.16;66.64;94347.48;1778045;79;22127;-55
2021/04/19 06:29:34;;;;;;;;;;;;;;;9.21;66.91;94348.30;1782547;78;20254;-57
2021/04/19 06:32:01;;;;;;;;;;;;;;;9.31;66.55;94349.28;1763551;80;20327;-58
2021/04/19 06:34:29;;;;;;;;;;;;;;;9.46;65.71;94351.64;1710293;81;20273;-56
2021/04/19 06:36:57;;;;;;;;;;;;;;;9.65;65.32;94352.52;1782410;79;20304;-57
2021/04/19 06:39:24;;;;;;;;;;;;;;;9.79;64.49;94347.86;1780767;79;21195;-56
2021/04/19 06:41:52;;;;;;;;;;;;;;;9.85;64.10;94341.33;1758208;80;20326;-57
2021/04/19 06:44:22;;;;;;;;;;;;;;;9.96;63.55;94344.41;1775478;80;20285;-58
2021/04/19 06:46:49;;;;;;;;;;;;;;;10.07;63.47;94346.77;1756350;81;20267;-56
2021/04/19 06:49:18;;;;;;;;;;;;;;;10.17;63.01;94342.21;1771203;79;20308;-61
2021/04/19 06:51:45;;;;;;;;;;;;;;;10.18;62.68;94347.86;1768735;80;21891;-59
2021/04/19 06:54:13;;;;;;;;;;;;;;;10.18;62.65;94342.98;1772022;80;21028;-54
2021/04/19 06:56:42;;;;;;;;;;;;;;;10.19;62.80;94337.64;1772263;80;20263;-61
2021/04/19 06:59:13;;;;;;;;;;;;;;;10.27;62.50;94337.50;1772518;80;20290;-59
2021/04/19 07:01:41;;;;;;;;;;;;;;;10.34;62.55;94333.86;1774208;80;21406;-57
2021/04/19 07:04:11;;;;;;;;;;;;;;;10.34;62.00;94338.61;1769843;80;21212;-57
2021/04/19 07:06:39;;;;;;;;;;;;;;;10.34;61.51;94337.98;1771108;80;20881;-54
2021/04/19 07:09:14;;;;;;;;;;;;;;;10.34;61.58;94336.61;1788311;78;20735;-62
2021/04/19 07:11:45;;;;;;;;;;;;;;;10.36;61.80;94337.54;1761079;81;20277;-63
2021/04/19 07:14:13;;;;;;;;;;;;;;;10.42;61.95;94341.20;1748719;80;20242;-56
2021/04/19 07:16:43;;;;;;;;;;;;;;;10.47;61.80;94338.63;1757434;80;21651;-65
2021/04/19 07:19:13;;;;;;;;;;;;;;;10.54;61.11;94342.45;1747930;80;37493;-61
2021/04/19 07:21:41;;;;;;;;;;;;;;;10.54;61.13;94340.32;1778815;79;20291;-57
2021/04/19 07:24:11;;;;;;;;;;;;;;;10.59;60.92;94337.73;1759026;81;20295;-56
2021/04/19 07:26:40;;;;;;;;;;;;;;;10.63;60.81;94328.72;1776412;79;20288;-52
2021/04/19 07:29:08;;;;;;;;;;;;;;;10.73;60.86;94328.86;1785244;78;21201;-59
2021/04/19 07:31:49;;;;;;;;;;;;;;;10.81;60.66;94327.36;1784872;79;20274;-63
2021/04/19 07:34:27;;;;;;;;;;;;;;;10.94;61.36;94324.59;1764917;80;20260;-57
2021/04/19 07:37:06;;;;;;;;;;;;;;;11.06;61.23;94323.68;1729587;81;20324;-60
2021/04/19 07:39:36;;;;;;;;;;;;;;;11.15;61.34;94328.42;1759864;80;20269;-60
2021/04/19 07:42:11;;;;;;;;;;;;;;;11.19;60.42;94320.13;1738130;81;23349;-59
2021/04/19 07:44:49;;;;;;;;;;;;;;;11.27;59.81;94321.95;1741404;81;20348;-55
2021/04/19 07:47:40;;;;;;;;;;;;;;;11.31;59.47;94322.59;1748399;81;20291;-58
2021/04/19 07:50:21;;;;;;;;;;;;;;;11.33;59.02;94320.13;1739246;81;20813;-60
2021/04/19 07:52:58;;;;;;;;;;;;;;;11.31;59.39;94321.21;1735637;81;20292;-59
2021/04/19 07:55:37;;;;;;;;;;;;;;;11.26;59.09;94322.59;1736174;81;21450;-58
2021/04/19 07:58:29;;;;;;;;;;;;;;;11.20;59.07;94314.77;1742271;81;20283;-60
2021/04/19 08:01:05;;;;;;;;;;;;;;;11.20;60.13;94316.15;1738093;81;20276;-59
2021/04/19 08:03:39;;;;;;;;;;;;;;;11.19;59.97;94311.88;1740612;81;20264;-59
2021/04/19 08:06:20;;;;;;;;;;;;;;;11.24;60.28;94319.53;1741245;81;20315;-60
2021/04/19 08:08:50;;;;;;;;;;;;;;;11.28;59.59;94317.38;1740254;81;21356;-61
2021/04/19 08:11:18;;;;;;;;;;;;;;;11.25;60.04;94316.15;1736270;81;21749;-66
2021/04/19 08:13:46;;;;;;;;;;;;;;;11.21;60.02;94313.55;1754827;80;20622;-61
2021/04/19 08:16:20;;;;;;;;;;;;;;;11.19;59.92;94316.00;1741729;81;20927;-59
2021/04/19 08:18:50;;;;;;;;;;;;;;;11.19;59.76;94315.25;1747945;81;20315;-56
2021/04/19 08:21:27;;;;;;;;;;;;;;;11.18;59.79;94313.09;1744258;81;21361;-59
2021/04/19 08:23:55;;;;;;;;;;;;;;;11.16;59.63;94313.42;1738774;81;20271;-59
2021/04/19 08:26:22;;;;;;;;;;;;;;;11.14;59.68;94310.38;1741058;81;20263;-55
2021/04/19 08:28:51;;;;;;;;;;;;;;;11.10;59.43;94309.14;1719223;82;20374;-59
2021/04/19 08:31:19;;;;;;;;;;;;;;;11.06;59.71;94308.55;1750364;79;20305;-60
2021/04/19 08:33:47;;;;;;;;;;;;;;;11.03;60.45;94308.09;1746495;81;21400;-56
2021/04/19 08:36:16;;;;;;;;;;;;;;;10.99;60.83;94312.22;1761903;80;20280;-55
2021/04/19 08:38:45;;;;;;;;;;;;;;;10.94;60.78;94309.45;1781097;79;20305;-60
2021/04/19 08:41:12;;;;;;;;;;;;;;;10.97;60.72;94303.66;1714655;80;20351;-57
2021/04/19 08:43:40;;;;;;;;;;;;;;;11.04;60.27;94311.59;1762779;80;20218;-57
2021/04/19 08:46:11;;;;;;;;;;;;;;;11.06;60.03;94307.17;1759386;80;21263;-64
2021/04/19 08:48:39;;;;;;;;;;;;;;;11.03;59.87;94310.84;1709518;81;20275;-60
2021/04/19 08:51:07;;;;;;;;;;;;;;;11.01;59.78;94307.02;1760603;80;20257;-59
2021/04/19 08:53:37;;;;;;;;;;;;;;;10.92;59.73;94310.53;1761427;80;20245;-59
2021/04/19 08:56:06;;;;;;;;;;;;;;;10.78;59.61;94309.77;1762919;80;20290;-56
2021/04/19 08:58:34;;;;;;;;;;;;;;;10.71;60.54;94306.55;1792717;78;21193;-62
2021/04/19 09:01:03;;;;;;;;;;;;;;;10.66;60.85;94303.64;1761096;80;20270;-59
2021/04/19 09:03:32;;;;;;;;;;;;;;;10.65;61.09;94307.02;1758541;81;20260;-59
2021/04/19 09:06:03;;;;;;;;;;;;;;;10.67;61.48;94312.05;1760242;80;20214;-62
2021/04/19 09:08:34;;;;;;;;;;;;;;;10.67;61.41;94307.32;1764062;80;20245;-56
2021/04/19 09:11:06;;;;;;;;;;;;;;;10.68;61.68;94308.09;1760710;80;21391;-57
2021/04/19 09:13:36;;;;;;;;;;;;;;;10.62;61.50;94305.78;1762423;80;21112;-59
2021/04/19 09:16:17;;;;;;;;;;;;;;;10.59;62.17;94307.48;1761263;81;20298;-58
2021/04/19 09:18:46;;;;;;;;;;;;;;;10.57;62.75;94305.77;1761178;80;20315;-57
2021/04/19 09:21:49;;;;;;;;;;;;;;;10.58;63.06;94303.80;1761443;80;20285;-59
2021/04/19 09:24:21;;;;;;;;;;;;;;;10.57;62.92;94304.40;1763753;80;21281;-57
2021/04/19 09:26:55;;;;;;;;;;;;;;;10.55;63.16;94310.97;1759117;80;21085;-58
2021/04/19 09:29:29;;;;;;;;;;;;;;;10.51;62.98;94305.48;1757790;81;20597;-55
2021/04/19 09:31:59;;;;;;;;;;;;;;;10.51;63.41;94304.11;1763259;80;20286;-55
2021/04/19 09:34:44;;;;;;;;;;;;;;;10.55;63.83;94308.84;1763346;80;20334;-56
2021/04/19 09:37:17;;;;;;;;;;;;;;;10.53;64.04;94304.41;1763565;81;22649;-59
2021/04/19 09:40:02;;;;;;;;;;;;;;;10.53;63.76;94303.79;1755601;81;20295;-56
2021/04/19 09:43:02;;;;;;;;;;;;;;;10.54;63.60;94306.69;1760770;80;21112;-58
2021/04/19 09:45:46;;;;;;;;;;;;;;;10.58;63.90;94303.80;1763156;80;20279;-55
2021/04/19 09:48:28;;;;;;;;;;;;;;;10.53;63.80;94307.16;1762895;80;20339;-58
2021/04/19 09:50:56;;;;;;;;;;;;;;;10.55;64.23;94303.34;1761356;80;21224;-57
2021/04/19 09:53:24;;;;;;;;;;;;;;;10.63;64.94;94308.69;1764175;80;20268;-56
2021/04/19 09:55:52;;;;;;;;;;;;;;;10.69;64.22;94302.75;1765666;80;20299;-58
2021/04/19 09:58:20;;;;;;;;;;;;;;;10.77;64.72;94301.98;1762214;81;20300;-58
2021/04/19 10:00:58;;;;;;;;;;;;;;;10.90;64.85;94306.10;1766715;80;20416;-59
2021/04/19 10:03:26;;;;;;;;;;;;;;;11.07;65.23;94298.28;1761665;81;21218;-57
2021/04/19 10:05:54;;;;;;;;;;;;;;;11.31;64.96;94295.05;1761538;81;20309;-58
2021/04/19 10:08:23;;;;;;;;;;;;;;;11.54;64.43;94294.38;1763700;80;20457;-59
2021/04/19 10:10:52;;;;;;;;;;;;;;;11.76;65.09;94294.33;1765316;80;20314;-59
2021/04/19 10:13:31;;;;;;;;;;;;;;;12.06;63.89;94288.38;1765967;80;20296;-57
2021/04/19 10:16:04;;;;;;;;;;;;;;;12.42;64.63;94285.41;1747800;81;21569;-60
2021/04/19 10:18:33;;;;;;;;;;;;;;;12.79;62.03;94286.05;1761942;80;20322;-59
2021/04/19 10:21:01;;;;;;;;;;;;;;;13.02;60.17;94287.42;1749294;80;20237;-60
2021/04/19 10:23:42;;;;;;;;;;;;;;;13.20;60.52;94289.24;1759880;81;20638;-57
2021/04/19 10:26:11;;;;;;;;;;;;;;;13.32;59.54;94291.75;1765334;81;20315;-59
2021/04/19 10:28:41;;;;;;;;;;;;;;;13.32;57.94;94288.22;1764812;80;21404;-55
2021/04/19 10:31:16;;;;;;;;;;;;;;;13.37;57.97;94290.30;1767483;80;20339;-60
2021/04/19 10:33:45;;;;;;;;;;;;;;;13.30;56.59;94285.17;1761377;81;20290;-56
2021/04/19 10:36:19;;;;;;;;;;;;;;;13.30;57.51;94285.17;1761600;81;20663;-54
2021/04/19 10:38:50;;;;;;;;;;;;;;;13.35;57.04;94287.26;1762950;80;20289;-57
2021/04/19 10:41:36;;;;;;;;;;;;;;;13.35;56.85;94281.12;1765654;80;21214;-56
2021/04/19 10:44:05;;;;;;;;;;;;;;;13.43;57.24;94278.75;1760844;80;20296;-56
2021/04/19 10:46:34;;;;;;;;;;;;;;;13.46;55.29;94277.16;1815937;79;20184;-56
2021/04/19 10:49:03;;;;;;;;;;;;;;;13.35;55.48;94280.35;1763131;80;20261;-56
2021/04/19 10:51:33;;;;;;;;;;;;;;;13.29;54.90;94278.12;1757690;80;20254;-55
2021/04/19 10:54:03;;;;;;;;;;;;;;;13.21;54.79;94269.44;1757276;80;21205;-56
2021/04/19 10:56:30;;;;;;;;;;;;;;;13.17;54.95;94274.40;1759567;81;20487;-58
2021/04/19 10:59:07;;;;;;;;;;;;;;;13.00;55.20;94266.42;1760061;81;20443;-58
2021/04/19 11:01:37;;;;;;;;;;;;;;;12.92;55.87;94270.00;1759478;80;20306;-57
2021/04/19 11:04:06;;;;;;;;;;;;;;;12.91;56.95;94258.17;1762693;81;20569;-56
2021/04/19 11:06:38;;;;;;;;;;;;;;;12.84;56.45;94264.67;1752042;80;21356;-54
2021/04/19 11:09:09;;;;;;;;;;;;;;;12.77;56.99;94266.44;1767996;79;20279;-58
2021/04/19 11:11:41;;;;;;;;;;;;;;;12.75;57.59;94264.13;1765362;80;20264;-57
2021/04/19 11:14:28;;;;;;;;;;;;;;;12.76;57.22;94262.15;1767266;81;21565;-59
2021/04/19 11:17:06;;;;;;;;;;;;;;;12.75;57.96;94263.39;1765915;81;20247;-58
2021/04/19 11:19:42;;;;;;;;;;;;;;;12.75;58.25;94270.29;1773366;80;21206;-51
2021/04/19 11:22:33;;;;;;;;;;;;;;;12.77;58.35;94265.05;1770201;80;20298;-56
2021/04/19 11:25:23;;;;;;;;;;;;;;;12.84;57.98;94261.92;1767012;80;20454;-58
2021/04/19 11:27:56;;;;;;;;;;;;;;;12.79;58.08;94261.20;1742115;80;20323;-56
2021/04/19 11:30:26;;;;;;;;;;;;;;;12.74;58.19;94261.23;1778560;79;20278;-59
2021/04/19 11:33:03;;;;;;;;;;;;;;;12.68;58.49;94260.37;1750786;80;21189;-58
2021/04/19 11:35:37;;;;;;;;;;;;;;;12.60;58.54;94260.59;1746861;81;20710;-56
2021/04/19 11:38:06;;;;;;;;;;;;;;;12.58;58.30;94262.29;1747391;79;20305;-56
2021/04/19 11:40:36;;;;;;;;;;;;;;;12.45;57.64;94263.14;1767513;79;20702;-57
2021/04/19 11:43:27;;;;;;;;;;;;;;;12.28;57.65;94260.65;1767764;80;20630;-58
2021/04/19 11:46:09;;;;;;;;;;;;;;;12.16;58.28;94262.27;1766117;80;21267;-59
2021/04/19 11:48:42;;;;;;;;;;;;;;;11.95;58.48;94250.30;1765270;80;20298;-57
2021/04/19 11:51:10;;;;;;;;;;;;;;;11.79;58.55;94256.19;1777852;79;20533;-57
2021/04/19 11:53:39;;;;;;;;;;;;;;;11.61;59.43;94249.38;1765322;80;20268;-56
2021/04/19 11:56:09;;;;;;;;;;;;;;;11.59;59.58;94253.81;1760876;79;20444;-60
2021/04/19 11:58:42;;;;;;;;;;;;;;;11.56;59.73;94248.61;1780942;79;21203;-57
2021/04/19 12:01:14;;;;;;;;;;;;;;;11.54;59.67;94246.16;1750046;81;20264;-56
2021/04/19 12:03:42;;;;;;;;;;;;;;;11.50;59.75;94242.81;1743188;81;20314;-58
2021/04/19 12:06:12;;;;;;;;;;;;;;;11.44;60.14;94245.43;1749075;80;20337;-55
2021/04/19 12:08:41;;;;;;;;;;;;;;;11.39;59.89;94239.16;1757127;81;20494;-59
2021/04/19 12:11:12;;;;;;;;;;;;;;;11.33;59.90;94240.27;1758437;81;21392;-56
2021/04/19 12:13:41;;;;;;;;;;;;;;;11.28;59.83;94238.90;1755187;80;20315;-56
2021/04/19 12:16:10;;;;;;;;;;;;;;;11.27;59.87;94232.47;1759586;80;20280;-59
2021/04/19 12:18:39;;;;;;;;;;;;;;;11.25;60.24;94231.57;1774123;79;20911;-58
2021/04/19 12:21:08;;;;;;;;;;;;;;;11.22;60.25;94229.75;1738235;81;20271;-58
2021/04/19 12:23:36;;;;;;;;;;;;;;;11.19;60.41;94234.78;1758577;81;22738;-56
2021/04/19 12:26:04;;;;;;;;;;;;;;;11.17;60.86;94231.73;1750762;81;20396;-55
2021/04/19 12:28:34;;;;;;;;;;;;;;;11.19;60.97;94235.41;1757356;78;20283;-55
2021/04/19 12:31:02;;;;;;;;;;;;;;;11.17;60.93;94238.61;1746911;81;20893;-56
2021/04/19 12:33:31;;;;;;;;;;;;;;;11.14;60.87;94224.41;1749501;81;20335;-62
2021/04/19 12:35:58;;;;;;;;;;;;;;;11.13;60.76;94231.13;1760981;80;21216;-54
2021/04/19 12:38:26;;;;;;;;;;;;;;;11.13;60.64;94225.63;1756873;79;21303;-58
2021/04/19 12:40:53;;;;;;;;;;;;;;;11.12;60.17;94228.23;1755747;81;20278;-59
2021/04/19 12:43:21;;;;;;;;;;;;;;;11.11;60.38;94228.09;1790139;79;20321;-59
2021/04/19 12:45:51;;;;;;;;;;;;;;;11.11;60.87;94225.33;1762333;81;20547;-58
2021/04/19 12:48:19;;;;;;;;;;;;;;;11.09;60.61;94223.66;1748427;81;21149;-59
2021/04/19 12:50:47;;;;;;;;;;;;;;;11.06;61.00;94221.83;1767709;80;20243;-58
2021/04/19 12:53:15;;;;;;;;;;;;;;;11.04;61.57;94218.78;1770951;80;21158;-58
2021/04/19 12:56:01;;;;;;;;;;;;;;;11.05;61.64;94214.03;1768670;80;20309;-56
2021/04/19 12:58:28;;;;;;;;;;;;;;;11.03;61.78;94214.51;1772070;80;20284;-54
2021/04/19 13:00:56;;;;;;;;;;;;;;;10.99;61.85;94213.88;1768097;80;21366;-56
2021/04/19 13:03:23;;;;;;;;;;;;;;;11.02;62.40;94221.20;1773931;80;20353;-53
2021/04/19 13:05:51;;;;;;;;;;;;;;;11.06;62.64;94213.58;1772734;80;20519;-55
2021/04/19 13:08:19;;;;;;;;;;;;;;;11.11;62.68;94206.66;1755474;80;20791;-57
2021/04/19 13:10:47;;;;;;;;;;;;;;;11.12;62.84;94217.22;1770047;80;20302;-56
2021/04/19 13:13:14;;;;;;;;;;;;;;;11.21;62.54;94213.05;1774013;80;21127;-55